sensor_id;sensor_type;location;lat;lon;timestamp;P1;durP1;ratioP1;P2;durP2;ratioP2
2522;SDS011;1272;53.332;9.860;2023-02-22T00:00:39;20.07;;;13.87;;
2522;SDS011;1272;53.332;9.860;2023-02-22T00:03:30;17.30;;;12.07;;
2522;SDS011;1272;53.332;9.860;2023-02-22T00:06:03;16.47;;;12.53;;
2522;SDS011;1272;53.332;9.860;2023-02-22T00:08:31;18.33;;;12.13;;
2522;SDS011;1272;53.332;9.860;2023-02-22T00:10:59;21.10;;;13.77;;
2522;SDS011;1272;53.332;9.860;2023-02-22T00:13:27;18.00;;;12.23;;
2522;SDS011;1272;53.332;9.860;2023-02-22T00:15:54;20.77;;;14.10;;
2522;SDS011;1272;53.332;9.860;2023-02-22T00:18:21;20.43;;;12.80;;
2522;SDS011;1272;53.332;9.860;2023-02-22T00:20:46;19.40;;;12.80;;
2522;SDS011;1272;53.332;9.860;2023-02-22T00:23:20;18.00;;;12.70;;
2522;SDS011;1272;53.332;9.860;2023-02-22T00:25:50;19.37;;;12.37;;
2522;SDS011;1272;53.332;9.860;2023-02-22T00:28:16;16.63;;;12.80;;
2522;SDS011;1272;53.332;9.860;2023-02-22T00:30:43;17.33;;;13.23;;
2522;SDS011;1272;53.332;9.860;2023-02-22T00:33:09;20.33;;;13.60;;
2522;SDS011;1272;53.332;9.860;2023-02-22T00:35:37;19.93;;;12.40;;
2522;SDS011;1272;53.332;9.860;2023-02-22T00:38:04;20.67;;;11.83;;
2522;SDS011;1272;53.332;9.860;2023-02-22T00:40:30;19.07;;;12.30;;
2522;SDS011;1272;53.332;9.860;2023-02-22T00:42:58;17.20;;;11.93;;
2522;SDS011;1272;53.332;9.860;2023-02-22T00:45:26;23.30;;;13.33;;
2522;SDS011;1272;53.332;9.860;2023-02-22T00:47:53;21.63;;;13.73;;
2522;SDS011;1272;53.332;9.860;2023-02-22T00:50:20;23.90;;;13.93;;
2522;SDS011;1272;53.332;9.860;2023-02-22T00:52:46;25.27;;;15.00;;
2522;SDS011;1272;53.332;9.860;2023-02-22T00:55:45;24.17;;;14.67;;
2522;SDS011;1272;53.332;9.860;2023-02-22T00:58:04;23.13;;;13.07;;
2522;SDS011;1272;53.332;9.860;2023-02-22T01:00:36;22.67;;;13.20;;
2522;SDS011;1272;53.332;9.860;2023-02-22T01:03:07;19.20;;;13.67;;
2522;SDS011;1272;53.332;9.860;2023-02-22T01:05:34;24.50;;;14.03;;
2522;SDS011;1272;53.332;9.860;2023-02-22T01:08:02;27.70;;;15.07;;
2522;SDS011;1272;53.332;9.860;2023-02-22T01:10:30;25.00;;;14.50;;
2522;SDS011;1272;53.332;9.860;2023-02-22T01:12:57;25.93;;;13.67;;
2522;SDS011;1272;53.332;9.860;2023-02-22T01:15:25;29.80;;;13.50;;
2522;SDS011;1272;53.332;9.860;2023-02-22T01:17:54;23.87;;;13.83;;
2522;SDS011;1272;53.332;9.860;2023-02-22T01:20:22;34.97;;;15.47;;
2522;SDS011;1272;53.332;9.860;2023-02-22T01:22:50;36.13;;;17.30;;
2522;SDS011;1272;53.332;9.860;2023-02-22T01:25:21;26.63;;;14.93;;
2522;SDS011;1272;53.332;9.860;2023-02-22T01:27:49;19.43;;;13.57;;
2522;SDS011;1272;53.332;9.860;2023-02-22T01:30:19;30.23;;;14.40;;
2522;SDS011;1272;53.332;9.860;2023-02-22T01:32:46;25.73;;;13.97;;
2522;SDS011;1272;53.332;9.860;2023-02-22T01:35:13;26.60;;;14.80;;
2522;SDS011;1272;53.332;9.860;2023-02-22T01:37:42;29.30;;;13.33;;
2522;SDS011;1272;53.332;9.860;2023-02-22T01:40:09;37.20;;;16.03;;
2522;SDS011;1272;53.332;9.860;2023-02-22T01:42:40;35.10;;;16.47;;
2522;SDS011;1272;53.332;9.860;2023-02-22T01:51:03;33.53;;;15.20;;
2522;SDS011;1272;53.332;9.860;2023-02-22T01:53:48;29.67;;;15.20;;
2522;SDS011;1272;53.332;9.860;2023-02-22T01:56:21;28.77;;;15.90;;
2522;SDS011;1272;53.332;9.860;2023-02-22T01:58:51;28.77;;;14.00;;
2522;SDS011;1272;53.332;9.860;2023-02-22T02:01:20;25.97;;;13.90;;
2522;SDS011;1272;53.332;9.860;2023-02-22T02:03:47;26.40;;;13.43;;
2522;SDS011;1272;53.332;9.860;2023-02-22T02:06:14;31.03;;;14.70;;
2522;SDS011;1272;53.332;9.860;2023-02-22T02:08:48;35.33;;;15.87;;
2522;SDS011;1272;53.332;9.860;2023-02-22T02:11:36;35.37;;;17.63;;
2522;SDS011;1272;53.332;9.860;2023-02-22T02:14:07;27.67;;;12.90;;
2522;SDS011;1272;53.332;9.860;2023-02-22T02:16:39;27.13;;;13.97;;
2522;SDS011;1272;53.332;9.860;2023-02-22T02:19:23;38.43;;;16.13;;
2522;SDS011;1272;53.332;9.860;2023-02-22T02:30:34;32.43;;;14.33;;
2522;SDS011;1272;53.332;9.860;2023-02-22T02:35:44;32.90;;;16.13;;
2522;SDS011;1272;53.332;9.860;2023-02-22T02:38:25;29.53;;;14.13;;
2522;SDS011;1272;53.332;9.860;2023-02-22T02:41:09;27.50;;;14.87;;
2522;SDS011;1272;53.332;9.860;2023-02-22T02:46:32;30.30;;;14.10;;
2522;SDS011;1272;53.332;9.860;2023-02-22T02:51:59;32.20;;;17.73;;
2522;SDS011;1272;53.332;9.860;2023-02-22T02:54:28;31.83;;;14.67;;
2522;SDS011;1272;53.332;9.860;2023-02-22T02:56:56;33.03;;;14.93;;
2522;SDS011;1272;53.332;9.860;2023-02-22T02:59:27;28.43;;;15.70;;
2522;SDS011;1272;53.332;9.860;2023-02-22T03:13:15;35.87;;;16.77;;
2522;SDS011;1272;53.332;9.860;2023-02-22T03:21:24;33.60;;;16.03;;
2522;SDS011;1272;53.332;9.860;2023-02-22T03:24:34;31.43;;;16.33;;
2522;SDS011;1272;53.332;9.860;2023-02-22T03:27:23;40.73;;;17.93;;
2522;SDS011;1272;53.332;9.860;2023-02-22T03:29:54;37.90;;;17.67;;
2522;SDS011;1272;53.332;9.860;2023-02-22T03:32:26;37.37;;;16.97;;
2522;SDS011;1272;53.332;9.860;2023-02-22T03:34:58;33.60;;;17.73;;
2522;SDS011;1272;53.332;9.860;2023-02-22T03:37:34;43.90;;;20.60;;
2522;SDS011;1272;53.332;9.860;2023-02-22T03:40:06;43.80;;;21.47;;
2522;SDS011;1272;53.332;9.860;2023-02-22T03:42:38;34.20;;;19.20;;
2522;SDS011;1272;53.332;9.860;2023-02-22T03:45:07;46.63;;;20.40;;
2522;SDS011;1272;53.332;9.860;2023-02-22T03:47:38;38.77;;;19.10;;
2522;SDS011;1272;53.332;9.860;2023-02-22T03:50:14;42.03;;;18.30;;
2522;SDS011;1272;53.332;9.860;2023-02-22T03:52:45;37.57;;;17.67;;
2522;SDS011;1272;53.332;9.860;2023-02-22T03:55:11;36.73;;;17.30;;
2522;SDS011;1272;53.332;9.860;2023-02-22T03:57:42;35.33;;;17.30;;
2522;SDS011;1272;53.332;9.860;2023-02-22T04:00:13;33.50;;;17.37;;
2522;SDS011;1272;53.332;9.860;2023-02-22T04:02:42;34.90;;;17.00;;
2522;SDS011;1272;53.332;9.860;2023-02-22T04:05:08;34.03;;;16.70;;
2522;SDS011;1272;53.332;9.860;2023-02-22T04:07:34;36.90;;;16.80;;
2522;SDS011;1272;53.332;9.860;2023-02-22T04:10:00;36.87;;;18.67;;
2522;SDS011;1272;53.332;9.860;2023-02-22T04:12:27;40.27;;;17.80;;
2522;SDS011;1272;53.332;9.860;2023-02-22T04:14:53;39.33;;;17.20;;
2522;SDS011;1272;53.332;9.860;2023-02-22T04:17:18;41.57;;;17.10;;
2522;SDS011;1272;53.332;9.860;2023-02-22T04:19:44;41.60;;;17.23;;
2522;SDS011;1272;53.332;9.860;2023-02-22T04:22:10;31.73;;;17.23;;
2522;SDS011;1272;53.332;9.860;2023-02-22T04:24:36;31.00;;;16.07;;
2522;SDS011;1272;53.332;9.860;2023-02-22T04:27:02;41.53;;;20.87;;
2522;SDS011;1272;53.332;9.860;2023-02-22T04:29:28;34.07;;;17.40;;
2522;SDS011;1272;53.332;9.860;2023-02-22T04:31:54;35.23;;;17.93;;
2522;SDS011;1272;53.332;9.860;2023-02-22T04:34:20;40.70;;;16.90;;
2522;SDS011;1272;53.332;9.860;2023-02-22T04:36:45;33.70;;;16.00;;
2522;SDS011;1272;53.332;9.860;2023-02-22T04:39:11;34.40;;;17.90;;
2522;SDS011;1272;53.332;9.860;2023-02-22T04:41:37;38.63;;;17.20;;
2522;SDS011;1272;53.332;9.860;2023-02-22T04:44:03;38.00;;;17.43;;
2522;SDS011;1272;53.332;9.860;2023-02-22T04:46:29;37.80;;;18.83;;
2522;SDS011;1272;53.332;9.860;2023-02-22T04:48:55;34.20;;;17.77;;
2522;SDS011;1272;53.332;9.860;2023-02-22T04:51:22;36.03;;;17.77;;
2522;SDS011;1272;53.332;9.860;2023-02-22T04:53:48;39.73;;;18.43;;
2522;SDS011;1272;53.332;9.860;2023-02-22T04:56:16;37.40;;;18.77;;
2522;SDS011;1272;53.332;9.860;2023-02-22T04:58:42;30.50;;;16.13;;
2522;SDS011;1272;53.332;9.860;2023-02-22T05:01:08;43.80;;;19.73;;
2522;SDS011;1272;53.332;9.860;2023-02-22T05:03:36;45.73;;;20.40;;
2522;SDS011;1272;53.332;9.860;2023-02-22T05:06:02;43.73;;;20.30;;
2522;SDS011;1272;53.332;9.860;2023-02-22T05:08:28;47.43;;;20.20;;
2522;SDS011;1272;53.332;9.860;2023-02-22T05:10:54;46.33;;;22.63;;
2522;SDS011;1272;53.332;9.860;2023-02-22T05:13:20;42.70;;;22.03;;
2522;SDS011;1272;53.332;9.860;2023-02-22T05:15:45;55.30;;;22.80;;
2522;SDS011;1272;53.332;9.860;2023-02-22T05:18:17;48.37;;;22.90;;
2522;SDS011;1272;53.332;9.860;2023-02-22T05:20:43;48.83;;;22.13;;
2522;SDS011;1272;53.332;9.860;2023-02-22T05:23:08;50.93;;;22.13;;
2522;SDS011;1272;53.332;9.860;2023-02-22T05:25:34;54.60;;;23.40;;
2522;SDS011;1272;53.332;9.860;2023-02-22T05:28:07;46.83;;;21.00;;
2522;SDS011;1272;53.332;9.860;2023-02-22T05:30:36;48.73;;;22.33;;
2522;SDS011;1272;53.332;9.860;2023-02-22T05:33:05;47.73;;;24.70;;
2522;SDS011;1272;53.332;9.860;2023-02-22T05:35:32;44.23;;;20.60;;
2522;SDS011;1272;53.332;9.860;2023-02-22T05:37:58;49.73;;;21.83;;
2522;SDS011;1272;53.332;9.860;2023-02-22T05:40:26;57.00;;;26.07;;
2522;SDS011;1272;53.332;9.860;2023-02-22T05:42:53;58.90;;;24.93;;
2522;SDS011;1272;53.332;9.860;2023-02-22T05:45:21;56.23;;;24.53;;
2522;SDS011;1272;53.332;9.860;2023-02-22T05:47:48;56.03;;;26.10;;
2522;SDS011;1272;53.332;9.860;2023-02-22T05:50:14;51.20;;;25.07;;
2522;SDS011;1272;53.332;9.860;2023-02-22T05:52:41;52.57;;;23.90;;
2522;SDS011;1272;53.332;9.860;2023-02-22T05:55:08;64.70;;;25.97;;
2522;SDS011;1272;53.332;9.860;2023-02-22T05:57:35;66.53;;;27.13;;
2522;SDS011;1272;53.332;9.860;2023-02-22T06:00:04;63.90;;;27.97;;
2522;SDS011;1272;53.332;9.860;2023-02-22T06:02:31;59.17;;;25.77;;
2522;SDS011;1272;53.332;9.860;2023-02-22T06:04:57;63.53;;;28.77;;
2522;SDS011;1272;53.332;9.860;2023-02-22T06:07:23;58.10;;;25.87;;
2522;SDS011;1272;53.332;9.860;2023-02-22T06:09:49;49.57;;;23.90;;
2522;SDS011;1272;53.332;9.860;2023-02-22T06:12:15;55.30;;;24.80;;
2522;SDS011;1272;53.332;9.860;2023-02-22T06:14:41;54.87;;;22.80;;
2522;SDS011;1272;53.332;9.860;2023-02-22T06:17:10;56.83;;;25.43;;
2522;SDS011;1272;53.332;9.860;2023-02-22T06:19:37;67.17;;;28.20;;
2522;SDS011;1272;53.332;9.860;2023-02-22T06:22:07;58.93;;;27.30;;
2522;SDS011;1272;53.332;9.860;2023-02-22T06:24:39;62.43;;;28.07;;
2522;SDS011;1272;53.332;9.860;2023-02-22T06:27:05;58.23;;;25.23;;
2522;SDS011;1272;53.332;9.860;2023-02-22T06:29:32;54.30;;;25.00;;
2522;SDS011;1272;53.332;9.860;2023-02-22T06:31:57;55.00;;;24.70;;
2522;SDS011;1272;53.332;9.860;2023-02-22T06:34:23;52.10;;;23.90;;
2522;SDS011;1272;53.332;9.860;2023-02-22T06:36:49;54.17;;;24.53;;
2522;SDS011;1272;53.332;9.860;2023-02-22T06:39:15;58.53;;;26.80;;
2522;SDS011;1272;53.332;9.860;2023-02-22T06:41:41;52.80;;;22.60;;
2522;SDS011;1272;53.332;9.860;2023-02-22T06:44:09;54.60;;;25.20;;
2522;SDS011;1272;53.332;9.860;2023-02-22T06:46:36;51.23;;;24.87;;
2522;SDS011;1272;53.332;9.860;2023-02-22T06:49:02;50.00;;;24.27;;
2522;SDS011;1272;53.332;9.860;2023-02-22T06:51:29;69.00;;;29.37;;
2522;SDS011;1272;53.332;9.860;2023-02-22T06:53:59;51.33;;;24.73;;
2522;SDS011;1272;53.332;9.860;2023-02-22T06:56:25;49.87;;;24.00;;
2522;SDS011;1272;53.332;9.860;2023-02-22T06:58:51;59.03;;;26.63;;
2522;SDS011;1272;53.332;9.860;2023-02-22T07:01:16;64.87;;;26.80;;
2522;SDS011;1272;53.332;9.860;2023-02-22T07:03:42;62.00;;;27.70;;
2522;SDS011;1272;53.332;9.860;2023-02-22T07:06:10;61.10;;;27.00;;
2522;SDS011;1272;53.332;9.860;2023-02-22T07:08:36;52.63;;;24.73;;
2522;SDS011;1272;53.332;9.860;2023-02-22T07:11:01;60.67;;;27.30;;
2522;SDS011;1272;53.332;9.860;2023-02-22T07:13:27;56.20;;;26.03;;
2522;SDS011;1272;53.332;9.860;2023-02-22T07:15:53;65.80;;;26.50;;
2522;SDS011;1272;53.332;9.860;2023-02-22T07:18:19;63.90;;;29.23;;
2522;SDS011;1272;53.332;9.860;2023-02-22T07:20:45;53.20;;;24.87;;
2522;SDS011;1272;53.332;9.860;2023-02-22T07:23:14;53.10;;;24.30;;
2522;SDS011;1272;53.332;9.860;2023-02-22T07:25:41;52.97;;;25.13;;
2522;SDS011;1272;53.332;9.860;2023-02-22T07:28:07;50.27;;;23.03;;
2522;SDS011;1272;53.332;9.860;2023-02-22T07:30:34;57.93;;;25.80;;
2522;SDS011;1272;53.332;9.860;2023-02-22T07:33:02;51.60;;;24.70;;
2522;SDS011;1272;53.332;9.860;2023-02-22T07:35:33;54.40;;;25.70;;
2522;SDS011;1272;53.332;9.860;2023-02-22T07:38:02;49.20;;;23.30;;
2522;SDS011;1272;53.332;9.860;2023-02-22T07:40:30;51.50;;;23.30;;
2522;SDS011;1272;53.332;9.860;2023-02-22T07:42:57;50.37;;;23.70;;
2522;SDS011;1272;53.332;9.860;2023-02-22T07:45:30;48.07;;;23.83;;
2522;SDS011;1272;53.332;9.860;2023-02-22T07:47:57;46.27;;;23.53;;
2522;SDS011;1272;53.332;9.860;2023-02-22T07:50:24;53.43;;;25.70;;
2522;SDS011;1272;53.332;9.860;2023-02-22T07:52:52;57.97;;;25.23;;
2522;SDS011;1272;53.332;9.860;2023-02-22T07:55:21;49.00;;;22.57;;
2522;SDS011;1272;53.332;9.860;2023-02-22T07:57:49;50.57;;;22.87;;
2522;SDS011;1272;53.332;9.860;2023-02-22T08:00:20;46.90;;;23.60;;
2522;SDS011;1272;53.332;9.860;2023-02-22T08:02:57;49.87;;;22.17;;
2522;SDS011;1272;53.332;9.860;2023-02-22T08:05:25;50.73;;;24.37;;
2522;SDS011;1272;53.332;9.860;2023-02-22T08:07:52;53.77;;;24.60;;
2522;SDS011;1272;53.332;9.860;2023-02-22T08:10:19;54.40;;;23.40;;
2522;SDS011;1272;53.332;9.860;2023-02-22T08:12:47;49.57;;;23.77;;
2522;SDS011;1272;53.332;9.860;2023-02-22T08:15:15;57.07;;;24.40;;
2522;SDS011;1272;53.332;9.860;2023-02-22T08:17:49;46.30;;;21.97;;
2522;SDS011;1272;53.332;9.860;2023-02-22T08:20:17;46.80;;;23.40;;
2522;SDS011;1272;53.332;9.860;2023-02-22T08:22:43;43.30;;;21.90;;
2522;SDS011;1272;53.332;9.860;2023-02-22T08:25:09;43.67;;;20.13;;
2522;SDS011;1272;53.332;9.860;2023-02-22T08:27:36;37.33;;;17.73;;
2522;SDS011;1272;53.332;9.860;2023-02-22T08:30:02;36.73;;;20.50;;
2522;SDS011;1272;53.332;9.860;2023-02-22T08:32:29;44.30;;;20.03;;
2522;SDS011;1272;53.332;9.860;2023-02-22T08:34:54;37.20;;;19.20;;
2522;SDS011;1272;53.332;9.860;2023-02-22T08:37:20;40.37;;;20.27;;
2522;SDS011;1272;53.332;9.860;2023-02-22T08:39:46;35.37;;;18.10;;
2522;SDS011;1272;53.332;9.860;2023-02-22T08:42:11;38.97;;;18.83;;
2522;SDS011;1272;53.332;9.860;2023-02-22T08:44:37;37.80;;;19.50;;
2522;SDS011;1272;53.332;9.860;2023-02-22T08:47:04;40.40;;;18.07;;
2522;SDS011;1272;53.332;9.860;2023-02-22T08:49:31;35.80;;;18.50;;
2522;SDS011;1272;53.332;9.860;2023-02-22T08:51:57;31.57;;;16.90;;
2522;SDS011;1272;53.332;9.860;2023-02-22T08:54:22;34.00;;;17.60;;
2522;SDS011;1272;53.332;9.860;2023-02-22T08:56:48;37.20;;;17.73;;
2522;SDS011;1272;53.332;9.860;2023-02-22T08:59:15;35.03;;;17.87;;
2522;SDS011;1272;53.332;9.860;2023-02-22T09:01:41;36.17;;;18.70;;
2522;SDS011;1272;53.332;9.860;2023-02-22T09:04:07;36.73;;;17.87;;
2522;SDS011;1272;53.332;9.860;2023-02-22T09:06:32;34.53;;;17.07;;
2522;SDS011;1272;53.332;9.860;2023-02-22T09:08:59;37.97;;;19.40;;
2522;SDS011;1272;53.332;9.860;2023-02-22T09:11:25;32.40;;;17.13;;
2522;SDS011;1272;53.332;9.860;2023-02-22T09:13:50;37.53;;;17.37;;
2522;SDS011;1272;53.332;9.860;2023-02-22T09:16:16;34.03;;;18.10;;
2522;SDS011;1272;53.332;9.860;2023-02-22T09:18:42;35.27;;;18.50;;
2522;SDS011;1272;53.332;9.860;2023-02-22T09:21:07;31.47;;;16.90;;
2522;SDS011;1272;53.332;9.860;2023-02-22T09:23:33;36.70;;;19.07;;
2522;SDS011;1272;53.332;9.860;2023-02-22T09:25:59;33.70;;;17.87;;
2522;SDS011;1272;53.332;9.860;2023-02-22T09:28:28;38.67;;;20.40;;
2522;SDS011;1272;53.332;9.860;2023-02-22T09:30:54;35.17;;;19.50;;
2522;SDS011;1272;53.332;9.860;2023-02-22T09:33:20;35.80;;;19.13;;
2522;SDS011;1272;53.332;9.860;2023-02-22T09:35:47;38.80;;;20.43;;
2522;SDS011;1272;53.332;9.860;2023-02-22T09:38:15;31.10;;;17.47;;
2522;SDS011;1272;53.332;9.860;2023-02-22T09:40:46;33.70;;;19.23;;
2522;SDS011;1272;53.332;9.860;2023-02-22T09:51:57;34.60;;;18.93;;
2522;SDS011;1272;53.332;9.860;2023-02-22T09:57:12;35.90;;;19.37;;
2522;SDS011;1272;53.332;9.860;2023-02-22T09:59:50;30.93;;;18.77;;
2522;SDS011;1272;53.332;9.860;2023-02-22T10:02:53;33.73;;;19.27;;
2522;SDS011;1272;53.332;9.860;2023-02-22T10:05:36;35.87;;;22.40;;
2522;SDS011;1272;53.332;9.860;2023-02-22T10:08:10;36.23;;;20.90;;
2522;SDS011;1272;53.332;9.860;2023-02-22T10:10:38;39.93;;;19.80;;
2522;SDS011;1272;53.332;9.860;2023-02-22T10:17:10;37.80;;;20.47;;
2522;SDS011;1272;53.332;9.860;2023-02-22T10:19:40;38.20;;;20.50;;
2522;SDS011;1272;53.332;9.860;2023-02-22T10:22:47;35.53;;;19.90;;
2522;SDS011;1272;53.332;9.860;2023-02-22T10:25:38;33.60;;;19.87;;
2522;SDS011;1272;53.332;9.860;2023-02-22T10:28:17;30.33;;;18.97;;
2522;SDS011;1272;53.332;9.860;2023-02-22T10:30:52;32.07;;;19.63;;
2522;SDS011;1272;53.332;9.860;2023-02-22T10:33:23;34.50;;;18.87;;
2522;SDS011;1272;53.332;9.860;2023-02-22T10:35:56;34.50;;;19.97;;
2522;SDS011;1272;53.332;9.860;2023-02-22T10:38:32;34.53;;;20.67;;
2522;SDS011;1272;53.332;9.860;2023-02-22T10:43:33;32.37;;;18.93;;
2522;SDS011;1272;53.332;9.860;2023-02-22T10:46:02;31.60;;;18.50;;
2522;SDS011;1272;53.332;9.860;2023-02-22T10:48:32;29.20;;;17.53;;
2522;SDS011;1272;53.332;9.860;2023-02-22T10:51:02;30.67;;;18.53;;
2522;SDS011;1272;53.332;9.860;2023-02-22T10:53:30;31.77;;;18.80;;
2522;SDS011;1272;53.332;9.860;2023-02-22T11:06:24;32.27;;;19.70;;
2522;SDS011;1272;53.332;9.860;2023-02-22T11:08:53;29.07;;;17.50;;
2522;SDS011;1272;53.332;9.860;2023-02-22T11:11:34;30.57;;;17.87;;
2522;SDS011;1272;53.332;9.860;2023-02-22T11:14:01;29.90;;;17.67;;
2522;SDS011;1272;53.332;9.860;2023-02-22T11:16:41;30.63;;;17.13;;
2522;SDS011;1272;53.332;9.860;2023-02-22T11:19:15;31.03;;;17.53;;
2522;SDS011;1272;53.332;9.860;2023-02-22T11:21:44;30.10;;;18.30;;
2522;SDS011;1272;53.332;9.860;2023-02-22T11:24:12;27.13;;;16.10;;
2522;SDS011;1272;53.332;9.860;2023-02-22T11:26:40;32.37;;;17.73;;
2522;SDS011;1272;53.332;9.860;2023-02-22T11:31:48;24.43;;;15.90;;
2522;SDS011;1272;53.332;9.860;2023-02-22T11:37:14;26.70;;;15.60;;
2522;SDS011;1272;53.332;9.860;2023-02-22T11:39:42;23.73;;;14.43;;
2522;SDS011;1272;53.332;9.860;2023-02-22T11:42:21;23.37;;;14.90;;
2522;SDS011;1272;53.332;9.860;2023-02-22T11:47:58;23.40;;;14.20;;
2522;SDS011;1272;53.332;9.860;2023-02-22T11:50:32;24.17;;;13.53;;
2522;SDS011;1272;53.332;9.860;2023-02-22T11:56:15;20.80;;;12.60;;
2522;SDS011;1272;53.332;9.860;2023-02-22T12:01:40;19.27;;;12.50;;
2522;SDS011;1272;53.332;9.860;2023-02-22T12:12:26;19.13;;;12.87;;
2522;SDS011;1272;53.332;9.860;2023-02-22T12:15:07;21.63;;;14.37;;
2522;SDS011;1272;53.332;9.860;2023-02-22T12:20:39;23.70;;;11.37;;
2522;SDS011;1272;53.332;9.860;2023-02-22T12:26:24;18.27;;;11.30;;
2522;SDS011;1272;53.332;9.860;2023-02-22T12:29:02;19.67;;;13.47;;
2522;SDS011;1272;53.332;9.860;2023-02-22T12:31:54;17.23;;;10.67;;
2522;SDS011;1272;53.332;9.860;2023-02-22T12:34:40;17.53;;;11.70;;
2522;SDS011;1272;53.332;9.860;2023-02-22T12:40:03;15.03;;;10.43;;
2522;SDS011;1272;53.332;9.860;2023-02-22T12:47:56;18.17;;;11.80;;
2522;SDS011;1272;53.332;9.860;2023-02-22T12:50:43;21.90;;;12.00;;
2522;SDS011;1272;53.332;9.860;2023-02-22T12:55:51;20.00;;;11.70;;
2522;SDS011;1272;53.332;9.860;2023-02-22T13:04:39;16.00;;;10.57;;
2522;SDS011;1272;53.332;9.860;2023-02-22T13:07:17;18.37;;;9.87;;
2522;SDS011;1272;53.332;9.860;2023-02-22T13:10:15;13.03;;;9.57;;
2522;SDS011;1272;53.332;9.860;2023-02-22T13:18:24;10.07;;;8.17;;
2522;SDS011;1272;53.332;9.860;2023-02-22T13:21:03;8.83;;;7.10;;
2522;SDS011;1272;53.332;9.860;2023-02-22T13:23:52;10.10;;;7.83;;
2522;SDS011;1272;53.332;9.860;2023-02-22T13:26:38;9.30;;;7.60;;
2522;SDS011;1272;53.332;9.860;2023-02-22T13:29:19;6.30;;;5.43;;
2522;SDS011;1272;53.332;9.860;2023-02-22T13:35:11;7.87;;;5.97;;
2522;SDS011;1272;53.332;9.860;2023-02-22T13:40:49;5.73;;;4.60;;
2522;SDS011;1272;53.332;9.860;2023-02-22T13:43:36;9.77;;;6.37;;
2522;SDS011;1272;53.332;9.860;2023-02-22T13:51:32;5.33;;;4.77;;
2522;SDS011;1272;53.332;9.860;2023-02-22T13:57:02;5.90;;;5.20;;
2522;SDS011;1272;53.332;9.860;2023-02-22T13:59:41;5.90;;;5.30;;
2522;SDS011;1272;53.332;9.860;2023-02-22T14:02:12;7.57;;;5.77;;
2522;SDS011;1272;53.332;9.860;2023-02-22T14:08:05;6.33;;;5.50;;
2522;SDS011;1272;53.332;9.860;2023-02-22T14:13:23;8.90;;;6.10;;
2522;SDS011;1272;53.332;9.860;2023-02-22T14:18:30;6.47;;;5.60;;
2522;SDS011;1272;53.332;9.860;2023-02-22T14:26:14;7.00;;;5.53;;
2522;SDS011;1272;53.332;9.860;2023-02-22T14:28:51;6.93;;;5.47;;
2522;SDS011;1272;53.332;9.860;2023-02-22T14:31:18;8.03;;;6.80;;
2522;SDS011;1272;53.332;9.860;2023-02-22T14:47:37;8.73;;;5.97;;
2522;SDS011;1272;53.332;9.860;2023-02-22T14:50:12;7.70;;;6.20;;
2522;SDS011;1272;53.332;9.860;2023-02-22T14:52:47;9.63;;;6.17;;
2522;SDS011;1272;53.332;9.860;2023-02-22T14:55:23;7.07;;;6.13;;
2522;SDS011;1272;53.332;9.860;2023-02-22T14:58:35;7.30;;;5.57;;
2522;SDS011;1272;53.332;9.860;2023-02-22T15:00:48;8.27;;;6.63;;
2522;SDS011;1272;53.332;9.860;2023-02-22T15:08:31;10.10;;;6.73;;
2522;SDS011;1272;53.332;9.860;2023-02-22T15:10:58;7.37;;;6.60;;
2522;SDS011;1272;53.332;9.860;2023-02-22T15:13:27;11.83;;;7.80;;
2522;SDS011;1272;53.332;9.860;2023-02-22T15:15:58;10.47;;;7.37;;
2522;SDS011;1272;53.332;9.860;2023-02-22T15:18:27;11.60;;;7.80;;
2522;SDS011;1272;53.332;9.860;2023-02-22T15:21:03;9.93;;;7.30;;
2522;SDS011;1272;53.332;9.860;2023-02-22T15:23:45;13.43;;;8.67;;
2522;SDS011;1272;53.332;9.860;2023-02-22T15:28:44;11.27;;;9.50;;
2522;SDS011;1272;53.332;9.860;2023-02-22T15:33:41;16.00;;;10.20;;
2522;SDS011;1272;53.332;9.860;2023-02-22T15:36:11;13.63;;;10.00;;
2522;SDS011;1272;53.332;9.860;2023-02-22T15:38:40;13.63;;;9.10;;
2522;SDS011;1272;53.332;9.860;2023-02-22T15:41:18;14.33;;;10.73;;
2522;SDS011;1272;53.332;9.860;2023-02-22T15:43:59;14.20;;;10.13;;
2522;SDS011;1272;53.332;9.860;2023-02-22T15:46:30;13.40;;;10.73;;
2522;SDS011;1272;53.332;9.860;2023-02-22T15:49:03;15.70;;;11.17;;
2522;SDS011;1272;53.332;9.860;2023-02-22T15:51:29;14.40;;;10.40;;
2522;SDS011;1272;53.332;9.860;2023-02-22T15:53:57;17.60;;;12.90;;
2522;SDS011;1272;53.332;9.860;2023-02-22T15:56:26;15.77;;;12.20;;
2522;SDS011;1272;53.332;9.860;2023-02-22T15:58:58;16.53;;;12.57;;
2522;SDS011;1272;53.332;9.860;2023-02-22T16:01:57;18.73;;;13.13;;
2522;SDS011;1272;53.332;9.860;2023-02-22T16:04:25;17.20;;;12.70;;
2522;SDS011;1272;53.332;9.860;2023-02-22T16:07:01;18.60;;;13.13;;
2522;SDS011;1272;53.332;9.860;2023-02-22T16:09:31;20.03;;;15.07;;
2522;SDS011;1272;53.332;9.860;2023-02-22T16:12:08;20.23;;;14.07;;
2522;SDS011;1272;53.332;9.860;2023-02-22T16:14:47;18.10;;;14.20;;
2522;SDS011;1272;53.332;9.860;2023-02-22T16:19:48;22.00;;;15.17;;
2522;SDS011;1272;53.332;9.860;2023-02-22T16:22:34;17.10;;;14.37;;
2522;SDS011;1272;53.332;9.860;2023-02-22T16:28:00;21.80;;;14.57;;
2522;SDS011;1272;53.332;9.860;2023-02-22T16:30:39;17.87;;;14.37;;
2522;SDS011;1272;53.332;9.860;2023-02-22T16:33:08;23.23;;;15.47;;
2522;SDS011;1272;53.332;9.860;2023-02-22T16:35:40;18.07;;;15.33;;
2522;SDS011;1272;53.332;9.860;2023-02-22T16:38:15;23.73;;;16.70;;
2522;SDS011;1272;53.332;9.860;2023-02-22T16:40:45;19.20;;;14.07;;
2522;SDS011;1272;53.332;9.860;2023-02-22T16:43:16;27.53;;;14.87;;
2522;SDS011;1272;53.332;9.860;2023-02-22T16:45:44;18.90;;;15.30;;
2522;SDS011;1272;53.332;9.860;2023-02-22T16:48:14;20.90;;;14.60;;
2522;SDS011;1272;53.332;9.860;2023-02-22T16:50:46;23.53;;;14.70;;
2522;SDS011;1272;53.332;9.860;2023-02-22T16:53:12;22.57;;;14.23;;
2522;SDS011;1272;53.332;9.860;2023-02-22T16:55:42;27.20;;;15.10;;
2522;SDS011;1272;53.332;9.860;2023-02-22T16:58:14;23.23;;;17.10;;
2522;SDS011;1272;53.332;9.860;2023-02-22T17:00:43;25.83;;;15.90;;
2522;SDS011;1272;53.332;9.860;2023-02-22T17:03:10;26.67;;;17.07;;
2522;SDS011;1272;53.332;9.860;2023-02-22T17:05:39;25.80;;;17.33;;
2522;SDS011;1272;53.332;9.860;2023-02-22T17:08:06;23.27;;;17.37;;
2522;SDS011;1272;53.332;9.860;2023-02-22T17:10:32;24.47;;;17.33;;
2522;SDS011;1272;53.332;9.860;2023-02-22T17:12:58;24.97;;;16.03;;
2522;SDS011;1272;53.332;9.860;2023-02-22T17:15:25;23.97;;;16.30;;
2522;SDS011;1272;53.332;9.860;2023-02-22T17:17:53;22.07;;;14.90;;
2522;SDS011;1272;53.332;9.860;2023-02-22T17:20:20;21.53;;;16.03;;
2522;SDS011;1272;53.332;9.860;2023-02-22T17:23:00;18.80;;;15.20;;
2522;SDS011;1272;53.332;9.860;2023-02-22T17:25:31;27.97;;;16.73;;
2522;SDS011;1272;53.332;9.860;2023-02-22T17:28:00;20.20;;;16.03;;
2522;SDS011;1272;53.332;9.860;2023-02-22T17:30:29;20.67;;;14.40;;
2522;SDS011;1272;53.332;9.860;2023-02-22T17:32:57;25.47;;;15.83;;
2522;SDS011;1272;53.332;9.860;2023-02-22T17:35:28;17.07;;;12.80;;
2522;SDS011;1272;53.332;9.860;2023-02-22T17:37:55;19.90;;;14.10;;
2522;SDS011;1272;53.332;9.860;2023-02-22T17:40:21;24.73;;;13.63;;
2522;SDS011;1272;53.332;9.860;2023-02-22T17:42:47;22.10;;;15.87;;
2522;SDS011;1272;53.332;9.860;2023-02-22T17:45:19;20.93;;;13.80;;
2522;SDS011;1272;53.332;9.860;2023-02-22T17:47:47;19.60;;;12.50;;
2522;SDS011;1272;53.332;9.860;2023-02-22T17:50:17;20.07;;;13.40;;
2522;SDS011;1272;53.332;9.860;2023-02-22T17:52:44;21.17;;;14.27;;
2522;SDS011;1272;53.332;9.860;2023-02-22T17:55:11;19.20;;;13.63;;
2522;SDS011;1272;53.332;9.860;2023-02-22T17:57:40;28.30;;;13.57;;
2522;SDS011;1272;53.332;9.860;2023-02-22T18:00:09;16.87;;;12.00;;
2522;SDS011;1272;53.332;9.860;2023-02-22T18:02:58;19.70;;;13.10;;
2522;SDS011;1272;53.332;9.860;2023-02-22T18:05:26;20.80;;;14.20;;
2522;SDS011;1272;53.332;9.860;2023-02-22T18:07:52;24.23;;;14.27;;